Time;durP1;ratioP1;P1;durP2;ratioP2;P2;SDS_P1;SDS_P2;PMS_P1;PMS_P2;Temp;Humidity;BMP_temperature;BMP_pressure;BME280_temperature;BME280_humidity;BME280_pressure;Samples;Min_cycle;Max_cycle;Signal;HPM_P1;HPM_P2
2022/12/12 00:01:54;;;;;;;33.80;21.05;;;;;;;2.38;66.07;100980.03;5027166;28;20109;-59
2022/12/12 00:04:19;;;;;;;33.13;21.58;;;;;;;2.35;66.02;100985.06;5019130;28;22229;-60
2022/12/12 00:06:45;;;;;;;33.40;22.55;;;;;;;2.36;65.65;100984.03;5008551;28;20530;-60
2022/12/12 00:09:11;;;;;;;34.78;21.52;;;;;;;2.34;66.31;100986.09;5020555;28;20029;-59
2022/12/12 00:11:36;;;;;;;32.38;20.20;;;;;;;2.32;66.23;100982.69;5027768;28;20381;-60
2022/12/12 00:14:02;;;;;;;31.65;20.38;;;;;;;2.29;65.51;100983.09;5016767;28;20034;-59
2022/12/12 00:16:28;;;;;;;30.73;20.45;;;;;;;2.27;65.48;100985.19;5026276;28;20408;-60
2022/12/12 00:18:54;;;;;;;30.52;20.20;;;;;;;2.28;65.91;100979.53;5026322;28;20032;-59
2022/12/12 00:21:22;;;;;;;30.92;20.77;;;;;;;2.23;66.01;100979.25;5026796;28;20033;-59
2022/12/12 00:23:47;;;;;;;30.90;21.05;;;;;;;2.21;65.52;100981.34;5025478;28;20742;-59
2022/12/12 00:26:19;;;;;;;32.97;20.85;;;;;;;2.18;66.08;100974.34;5024460;28;20084;-60
2022/12/12 00:28:44;;;;;;;33.53;20.98;;;;;;;2.20;65.95;100979.63;5020953;28;20060;-59
2022/12/12 00:31:10;;;;;;;34.17;20.83;;;;;;;2.14;66.54;100980.44;5025910;28;20761;-59
2022/12/12 00:33:36;;;;;;;30.63;20.42;;;;;;;2.13;65.63;100979.59;5010298;28;20445;-60
2022/12/12 00:36:01;;;;;;;28.92;19.33;;;;;;;2.12;66.48;100971.53;5025036;28;20055;-60
2022/12/12 00:38:26;;;;;;;32.95;20.88;;;;;;;2.09;66.55;100978.28;5027986;28;20088;-60
2022/12/12 00:40:59;;;;;;;31.65;20.63;;;;;;;2.07;66.53;100977.59;5029433;28;20116;-59
2022/12/12 00:43:26;;;;;;;32.30;20.88;;;;;;;2.06;66.37;100988.75;5030060;28;20087;-60
2022/12/12 00:45:51;;;;;;;30.02;20.40;;;;;;;2.04;66.35;100988.94;5024459;28;20814;-60
2022/12/12 00:48:16;;;;;;;33.13;21.25;;;;;;;2.07;66.02;100984.97;5021887;28;20041;-59
2022/12/12 00:50:42;;;;;;;31.05;21.17;;;;;;;2.04;66.13;100985.34;5029634;28;20031;-60
2022/12/12 00:53:07;;;;;;;35.45;21.10;;;;;;;1.99;66.60;100991.41;5026329;28;20056;-60
2022/12/12 00:55:33;;;;;;;31.48;21.52;;;;;;;1.98;66.17;100987.00;5026093;28;20037;-60
2022/12/12 00:57:58;;;;;;;34.53;22.08;;;;;;;1.94;66.02;100981.06;5029107;28;20041;-59
2022/12/12 01:00:24;;;;;;;31.23;19.05;;;;;;;1.96;66.36;100997.28;5028438;28;20036;-59
2022/12/12 01:02:50;;;;;;;34.28;21.13;;;;;;;1.94;66.40;100996.63;5026353;28;20029;-60
2022/12/12 01:05:15;;;;;;;31.35;20.48;;;;;;;1.94;66.91;100994.75;5010151;28;20026;-59
2022/12/12 01:07:41;;;;;;;32.70;21.20;;;;;;;1.92;66.45;100998.69;5020618;28;20377;-60
2022/12/12 01:10:08;;;;;;;31.35;20.77;;;;;;;1.90;66.50;101001.66;5029663;28;20119;-59
2022/12/12 01:12:34;;;;;;;33.03;21.05;;;;;;;1.87;66.66;100996.56;5027763;28;20040;-60
2022/12/12 01:14:59;;;;;;;34.28;21.10;;;;;;;1.88;66.92;101014.66;5027199;28;20049;-60
2022/12/12 01:17:25;;;;;;;32.67;20.50;;;;;;;1.88;66.25;101011.09;5026409;28;20111;-60
2022/12/12 01:19:50;;;;;;;33.22;20.75;;;;;;;1.85;67.00;101012.34;5012257;28;20082;-60
2022/12/12 01:22:16;;;;;;;29.30;20.23;;;;;;;1.85;66.36;101016.97;5025485;28;20086;-59
2022/12/12 01:24:41;;;;;;;31.90;20.80;;;;;;;1.83;65.99;101013.56;5011296;28;20064;-60
2022/12/12 01:27:06;;;;;;;29.73;20.27;;;;;;;1.80;66.63;101017.50;5016107;28;20075;-59
2022/12/12 01:29:33;;;;;;;30.70;21.20;;;;;;;1.80;66.42;101027.63;5028983;28;20162;-60
2022/12/12 01:31:58;;;;;;;30.42;20.35;;;;;;;1.75;66.53;101010.94;5030012;28;20111;-59
2022/12/12 01:34:23;;;;;;;33.88;21.88;;;;;;;1.75;66.68;101030.94;5027795;28;20477;-60
2022/12/12 01:36:49;;;;;;;31.60;20.38;;;;;;;1.74;65.95;101029.25;5026791;28;20056;-59
2022/12/12 01:39:15;;;;;;;28.95;20.25;;;;;;;1.74;66.55;101023.78;5020697;28;20493;-60
2022/12/12 01:41:41;;;;;;;34.20;21.95;;;;;;;1.71;65.84;101030.47;5027333;28;20060;-60
2022/12/12 01:44:45;;;;;;;29.27;20.13;;;;;;;1.75;66.99;101025.47;5027887;28;20025;-60
2022/12/12 01:47:18;;;;;;;35.65;20.98;;;;;;;1.71;66.81;101029.63;5027754;28;20039;-60
2022/12/12 01:49:49;;;;;;;34.85;20.80;;;;;;;1.66;66.01;101024.72;5026981;28;20493;-60
2022/12/12 01:52:21;;;;;;;33.67;21.05;;;;;;;1.63;66.51;101027.84;5028343;28;20041;-60
2022/12/12 01:54:53;;;;;;;31.23;20.75;;;;;;;1.62;66.67;101033.50;5027669;28;20366;-59
2022/12/12 01:57:29;;;;;;;31.67;19.65;;;;;;;1.61;66.78;101040.88;5019653;28;20041;-60
2022/12/12 01:59:55;;;;;;;33.53;20.90;;;;;;;1.62;66.76;101036.25;5029589;28;20022;-59
2022/12/12 02:02:21;;;;;;;31.50;21.85;;;;;;;1.59;66.02;101037.47;5029307;28;20035;-63
2022/12/12 02:04:46;;;;;;;32.42;21.85;;;;;;;1.61;66.41;101037.25;5029038;28;20033;-60
2022/12/12 02:07:12;;;;;;;35.47;21.70;;;;;;;1.54;66.49;101041.81;5027686;28;20068;-60
2022/12/12 02:09:37;;;;;;;35.33;22.40;;;;;;;1.53;66.64;101040.94;5029641;28;20041;-59
2022/12/12 02:12:03;;;;;;;33.83;22.00;;;;;;;1.55;66.67;101043.50;5028977;28;20836;-59
2022/12/12 02:14:33;;;;;;;38.45;22.83;;;;;;;1.53;66.56;101043.69;5018291;28;20029;-60
2022/12/12 02:17:20;;;;;;;37.45;22.17;;;;;;;1.55;66.40;101036.16;5026443;28;20441;-60
2022/12/12 02:20:00;;;;;;;33.10;21.60;;;;;;;1.51;66.91;101042.19;5029462;28;20128;-60
2022/12/12 02:22:46;;;;;;;31.58;20.23;;;;;;;1.50;66.48;101044.06;5026448;28;20025;-60
2022/12/12 02:25:42;;;;;;;34.72;22.08;;;;;;;1.56;66.31;101056.13;5029914;28;20126;-60
2022/12/12 02:28:29;;;;;;;33.80;21.83;;;;;;;1.51;66.79;101055.88;5032278;28;20124;-59
2022/12/12 02:31:28;;;;;;;36.92;21.67;;;;;;;1.55;66.15;101052.56;5024187;28;20498;-60
2022/12/12 02:34:12;;;;;;;36.13;21.90;;;;;;;1.50;66.53;101057.75;5013669;28;20034;-60
2022/12/12 02:37:02;;;;;;;36.42;21.25;;;;;;;1.50;65.84;101052.28;5019831;28;20061;-60
2022/12/12 02:39:46;;;;;;;32.53;20.85;;;;;;;1.47;66.39;101055.38;5031612;28;20052;-60
2022/12/12 02:42:20;;;;;;;35.45;21.20;;;;;;;1.46;66.49;101054.53;5030924;28;20033;-60
2022/12/12 02:44:55;;;;;;;33.10;21.20;;;;;;;1.44;65.84;101053.88;5029667;28;20112;-59
2022/12/12 02:47:29;;;;;;;37.40;21.88;;;;;;;1.40;66.16;101054.44;5022068;28;20057;-59
2022/12/12 02:50:17;;;;;;;32.95;20.95;;;;;;;1.46;66.30;101049.06;5012800;28;20428;-62
2022/12/12 02:52:45;;;;;;;32.45;20.90;;;;;;;1.38;66.07;101051.06;5014365;28;20079;-59
2022/12/12 02:55:12;;;;;;;34.72;21.05;;;;;;;1.34;65.84;101052.47;5032589;28;20542;-59
2022/12/12 02:57:40;;;;;;;32.40;21.08;;;;;;;1.35;65.63;101052.28;5030899;28;20060;-59
2022/12/12 03:00:07;;;;;;;35.58;20.83;;;;;;;1.30;65.83;101052.00;5029788;28;20025;-59
2022/12/12 03:09:31;;;;;;;35.03;21.85;;;;;;;1.29;65.66;101047.53;5032506;28;20044;-59
2022/12/12 03:12:26;;;;;;;31.15;20.58;;;;;;;1.26;65.64;101041.59;5022550;28;20496;-59
2022/12/12 03:15:14;;;;;;;32.35;20.30;;;;;;;1.28;66.31;101043.13;5030936;28;20033;-59
2022/12/12 03:18:18;;;;;;;33.00;20.65;;;;;;;1.25;66.21;101046.22;5031806;28;20116;-59
2022/12/12 03:20:57;;;;;;;33.35;19.95;;;;;;;1.22;66.28;101038.41;5029643;28;20045;-59
2022/12/12 03:23:35;;;;;;;35.25;21.33;;;;;;;1.19;65.92;101045.09;5014783;28;20072;-59
2022/12/12 03:26:11;;;;;;;35.85;20.15;;;;;;;1.14;65.62;101039.34;5031302;28;20477;-59
2022/12/12 03:28:43;;;;;;;32.17;21.67;;;;;;;1.09;66.09;101040.94;5020063;28;20044;-59
2022/12/12 03:31:11;;;;;;;34.25;20.88;;;;;;;1.06;65.55;101039.44;5039553;28;20977;-59
2022/12/12 03:33:42;;;;;;;32.88;20.95;;;;;;;1.08;65.45;101041.97;5032022;28;20034;-59
2022/12/12 03:36:20;;;;;;;30.50;21.23;;;;;;;1.04;66.17;101038.75;5031034;28;20127;-59
2022/12/12 03:38:56;;;;;;;31.83;20.98;;;;;;;1.01;65.87;101038.28;5030060;28;20033;-59
2022/12/12 03:41:29;;;;;;;34.45;21.02;;;;;;;0.98;65.48;101039.50;5030181;28;20401;-59
2022/12/12 03:44:19;;;;;;;34.20;21.00;;;;;;;1.09;66.26;101046.41;5029436;28;20040;-59
2022/12/12 03:46:53;;;;;;;32.78;20.13;;;;;;;1.02;65.24;101046.28;5021361;28;20135;-60
2022/12/12 03:49:54;;;;;;;36.33;21.25;;;;;;;1.05;65.40;101050.53;5021020;28;20057;-59
2022/12/12 03:52:29;;;;;;;36.83;20.92;;;;;;;0.95;65.29;101045.34;5022149;28;20056;-59
2022/12/12 03:55:03;;;;;;;32.90;20.17;;;;;;;0.98;65.82;101051.31;5031445;28;20032;-59
2022/12/12 03:57:34;;;;;;;33.15;20.58;;;;;;;0.94;65.63;101049.09;5028869;28;20044;-59
2022/12/12 04:00:08;;;;;;;33.58;19.80;;;;;;;0.97;65.56;101056.94;5017186;28;20029;-59
2022/12/12 04:02:41;;;;;;;31.77;20.58;;;;;;;0.97;65.64;101051.47;5023467;28;20067;-59
2022/12/12 04:05:07;;;;;;;34.22;20.70;;;;;;;0.95;65.53;101046.19;5029533;28;20384;-60
2022/12/12 04:07:40;;;;;;;34.95;20.60;;;;;;;0.91;64.66;101057.69;5030872;28;20465;-59
2022/12/12 04:13:10;;;;;;;35.22;20.05;;;;;;;0.89;65.27;101057.84;5010952;28;20087;-59
2022/12/12 04:15:47;;;;;;;33.55;19.77;;;;;;;0.91;65.33;101064.00;5011466;28;20029;-59
2022/12/12 04:18:17;;;;;;;31.23;19.77;;;;;;;0.89;65.03;101057.84;5016807;28;20029;-59
2022/12/12 04:24:12;;;;;;;34.40;20.23;;;;;;;0.88;65.50;101056.16;5029854;28;20120;-59
2022/12/12 04:26:54;;;;;;;34.90;20.52;;;;;;;0.90;65.44;101069.63;5029620;28;20477;-59
2022/12/12 04:29:45;;;;;;;34.05;20.13;;;;;;;0.91;64.66;101060.41;5028751;28;20112;-59
2022/12/12 04:32:32;;;;;;;34.92;20.05;;;;;;;0.88;65.13;101067.09;5029240;28;20087;-59
2022/12/12 04:35:00;;;;;;;34.80;20.50;;;;;;;0.83;65.09;101080.47;5029914;28;20526;-59
2022/12/12 04:37:30;;;;;;;34.97;20.48;;;;;;;0.79;64.62;101083.75;5022387;28;20075;-59
2022/12/12 04:40:00;;;;;;;34.15;20.35;;;;;;;0.76;64.80;101074.03;5030489;28;20075;-59
2022/12/12 04:42:31;;;;;;;33.58;20.27;;;;;;;0.74;65.11;101087.03;5030142;28;20485;-59
2022/12/12 04:45:05;;;;;;;34.95;21.02;;;;;;;0.73;65.12;101085.31;5027982;28;20465;-59
2022/12/12 04:47:32;;;;;;;36.17;20.55;;;;;;;0.73;65.05;101088.06;5026246;28;20140;-59
2022/12/12 04:49:59;;;;;;;32.35;19.98;;;;;;;0.66;64.67;101085.19;5027334;28;20049;-59
2022/12/12 04:52:26;;;;;;;34.38;19.90;;;;;;;0.66;64.71;101090.66;5010194;28;20048;-59
2022/12/12 04:55:13;;;;;;;33.03;20.08;;;;;;;0.70;65.45;101085.69;5023325;28;20436;-59
2022/12/12 04:57:43;;;;;;;34.17;20.83;;;;;;;0.66;64.89;101087.09;5029413;28;20385;-59
2022/12/12 05:00:11;;;;;;;36.92;21.40;;;;;;;0.65;64.64;101088.13;5027767;28;20053;-59
2022/12/12 05:02:45;;;;;;;37.85;20.80;;;;;;;0.66;65.44;101087.94;5030127;28;20068;-59
2022/12/12 05:05:30;;;;;;;31.33;19.63;;;;;;;0.67;64.28;101097.00;5027915;28;20044;-59
2022/12/12 05:08:19;;;;;;;31.35;19.80;;;;;;;0.66;65.25;101085.19;5029318;28;20151;-59
2022/12/12 05:10:48;;;;;;;34.25;20.60;;;;;;;0.67;64.34;101081.47;5008247;28;20050;-59
2022/12/12 05:13:20;;;;;;;31.02;20.02;;;;;;;0.68;64.31;101077.69;5009377;28;20040;-59
2022/12/12 05:15:48;;;;;;;30.75;20.30;;;;;;;0.66;64.36;101082.47;5016725;28;20033;-59
2022/12/12 05:18:13;;;;;;;31.38;19.52;;;;;;;0.62;64.14;101081.13;5028696;28;20030;-59
2022/12/12 05:20:39;;;;;;;36.10;20.30;;;;;;;0.62;64.74;101085.75;5026950;28;20030;-59
2022/12/12 05:23:04;;;;;;;35.45;21.23;;;;;;;0.56;63.94;101079.16;5029909;28;20033;-59
2022/12/12 05:25:30;;;;;;;31.95;19.80;;;;;;;0.53;64.29;101079.50;5028094;28;20029;-59
2022/12/12 05:27:55;;;;;;;31.27;19.70;;;;;;;0.51;64.03;101092.47;5019795;28;20064;-59
2022/12/12 05:30:22;;;;;;;32.33;19.80;;;;;;;0.49;64.44;101086.38;5028121;28;20029;-59
2022/12/12 05:32:47;;;;;;;32.53;20.02;;;;;;;0.45;63.72;101085.03;5029854;28;20021;-59
2022/12/12 05:35:13;;;;;;;33.40;19.95;;;;;;;0.43;63.92;101095.25;5029643;28;20068;-59
2022/12/12 05:37:39;;;;;;;33.97;20.05;;;;;;;0.43;64.39;101089.81;5027246;28;20049;-60
2022/12/12 05:40:07;;;;;;;32.35;19.75;;;;;;;0.40;64.18;101088.31;5029669;28;20029;-59
2022/12/12 05:42:32;;;;;;;35.92;21.23;;;;;;;0.37;64.93;101090.53;5028789;28;20428;-59
2022/12/12 05:44:58;;;;;;;36.25;20.23;;;;;;;0.37;64.74;101093.28;5011191;28;20036;-60
2022/12/12 05:47:23;;;;;;;35.28;19.98;;;;;;;0.33;64.43;101094.66;5020409;28;20040;-60
2022/12/12 05:49:48;;;;;;;34.78;20.73;;;;;;;0.32;64.85;101095.72;5028998;28;20404;-60
2022/12/12 05:52:14;;;;;;;34.08;20.50;;;;;;;0.32;64.69;101101.16;5027144;28;20096;-60
2022/12/12 05:54:39;;;;;;;31.38;19.02;;;;;;;0.32;64.48;101101.16;5029902;28;20033;-60
2022/12/12 05:57:04;;;;;;;33.78;20.45;;;;;;;0.31;64.12;101094.84;5026519;28;20038;-60
2022/12/12 05:59:30;;;;;;;34.35;20.58;;;;;;;0.31;63.92;101099.44;5027525;28;20116;-59
2022/12/12 06:01:55;;;;;;;37.17;21.80;;;;;;;0.32;64.49;101093.81;5015003;28;20385;-59
2022/12/12 06:04:21;;;;;;;37.78;19.95;;;;;;;0.30;63.84;101105.94;5028398;28;20026;-59
2022/12/12 06:06:46;;;;;;;34.00;20.35;;;;;;;0.33;63.97;101100.13;5034496;28;20113;-59
2022/12/12 06:09:11;;;;;;;33.78;19.77;;;;;;;0.30;63.81;101111.41;5031349;28;20061;-59
2022/12/12 06:11:37;;;;;;;39.20;21.15;;;;;;;0.28;64.01;101110.75;5033472;28;20091;-59
2022/12/12 06:14:03;;;;;;;33.25;19.50;;;;;;;0.28;64.04;101103.41;5032091;28;20029;-59
2022/12/12 06:16:28;;;;;;;34.03;19.67;;;;;;;0.22;64.53;101113.16;5029172;28;20087;-59
2022/12/12 06:18:54;;;;;;;33.45;19.15;;;;;;;0.19;64.64;101113.50;5024437;28;20034;-59
2022/12/12 06:21:20;;;;;;;34.58;19.35;;;;;;;0.15;64.25;101112.16;5014240;28;20076;-59
2022/12/12 06:23:46;;;;;;;35.17;18.80;;;;;;;0.14;64.12;101115.06;5021211;28;20481;-59
2022/12/12 06:26:13;;;;;;;38.10;20.17;;;;;;;0.12;64.38;101118.00;5033216;28;20060;-59
2022/12/12 06:28:39;;;;;;;35.97;19.20;;;;;;;0.11;64.63;101115.44;5030913;28;20418;-59
2022/12/12 06:31:06;;;;;;;36.38;19.13;;;;;;;0.11;64.12;101116.28;5032461;28;20060;-60
2022/12/12 06:33:35;;;;;;;37.50;20.13;;;;;;;0.10;64.08;101117.31;5030744;28;20072;-60
2022/12/12 06:36:04;;;;;;;35.90;19.90;;;;;;;0.11;64.66;101109.97;5018491;28;20069;-59
2022/12/12 06:38:30;;;;;;;35.65;19.30;;;;;;;0.11;64.82;101113.53;5012398;28;20030;-58
2022/12/12 06:40:55;;;;;;;32.15;17.92;;;;;;;0.12;64.33;101114.38;5023754;28;20076;-59
2022/12/12 06:43:21;;;;;;;36.08;18.85;;;;;;;0.09;64.85;101110.16;5029742;28;20060;-59
2022/12/12 06:45:46;;;;;;;32.55;18.45;;;;;;;0.05;64.41;101117.00;5030410;28;20033;-59
2022/12/12 06:48:12;;;;;;;40.03;19.90;;;;;;;0.07;64.16;101123.13;5028764;28;20040;-59
2022/12/12 06:50:42;;;;;;;34.65;18.92;;;;;;;0.09;64.19;101133.88;5029179;28;20169;-59
2022/12/12 06:53:08;;;;;;;34.60;18.90;;;;;;;0.08;64.12;101124.84;5014314;28;20053;-59
2022/12/12 06:55:33;;;;;;;32.83;19.20;;;;;;;0.06;64.35;101131.50;5020069;28;20041;-59
2022/12/12 06:57:59;;;;;;;33.63;19.58;;;;;;;0.06;64.11;101132.34;5026150;28;20393;-59
2022/12/12 07:00:24;;;;;;;36.65;20.13;;;;;;;0.02;64.43;101120.09;5029474;28;20029;-59
2022/12/12 07:02:49;;;;;;;34.72;19.75;;;;;;;0.04;64.43;101128.94;5028610;28;20033;-59
2022/12/12 07:05:15;;;;;;;35.00;19.08;;;;;;;0.06;64.21;101129.63;5029009;28;20046;-59
2022/12/12 07:07:40;;;;;;;39.47;19.60;;;;;;;-0.02;64.11;101135.94;5030425;28;20059;-59
2022/12/12 07:10:06;;;;;;;36.33;19.33;;;;;;;-0.02;64.03;101138.69;5029427;28;20408;-59
2022/12/12 07:12:32;;;;;;;35.58;19.70;;;;;;;-0.03;64.01;101141.59;5023505;28;20497;-59
2022/12/12 07:14:58;;;;;;;37.97;19.65;;;;;;;-0.04;64.40;101148.94;5022912;28;20436;-59
2022/12/12 07:17:23;;;;;;;35.78;19.05;;;;;;;-0.02;64.35;101148.75;5024636;28;20135;-59
2022/12/12 07:19:48;;;;;;;40.95;19.80;;;;;;;-0.03;64.22;101149.78;5021227;28;20038;-59
2022/12/12 07:22:13;;;;;;;38.65;18.27;;;;;;;-0.02;63.98;101146.03;5031179;28;20037;-59
2022/12/12 07:24:39;;;;;;;35.72;19.92;;;;;;;-0.05;64.07;101160.00;5028452;28;20041;-59
2022/12/12 07:27:05;;;;;;;36.60;18.45;;;;;;;-0.03;64.20;101156.09;5031466;28;20095;-59
2022/12/12 07:29:30;;;;;;;33.83;17.85;;;;;;;-0.04;63.91;101156.25;5020460;28;20455;-59
2022/12/12 07:31:56;;;;;;;39.67;18.98;;;;;;;-0.03;64.17;101157.97;5027524;28;20112;-58
2022/12/12 07:34:21;;;;;;;35.47;19.25;;;;;;;-0.04;63.44;101164.44;5029009;28;20026;-59
2022/12/12 07:36:46;;;;;;;35.75;18.73;;;;;;;-0.05;64.36;101168.19;5020899;28;20101;-59
2022/12/12 07:39:12;;;;;;;36.97;19.30;;;;;;;-0.06;63.77;101161.91;5030472;28;20822;-59
2022/12/12 07:41:38;;;;;;;31.63;17.45;;;;;;;-0.04;64.22;101169.88;5028768;28;20065;-59
2022/12/12 07:44:03;;;;;;;35.47;18.85;;;;;;;-0.05;63.92;101170.94;5028352;28;20091;-58
2022/12/12 07:46:29;;;;;;;36.83;19.63;;;;;;;-0.07;63.63;101178.47;5029176;28;20041;-58
2022/12/12 07:48:54;;;;;;;34.42;17.98;;;;;;;-0.08;63.65;101168.53;5027761;28;20025;-60
2022/12/12 07:51:20;;;;;;;34.72;18.80;;;;;;;-0.07;63.93;101173.84;5015126;28;20162;-59
2022/12/12 07:53:46;;;;;;;35.13;18.90;;;;;;;-0.07;64.05;101176.56;5024314;28;20033;-60
2022/12/12 07:56:14;;;;;;;32.85;18.30;;;;;;;-0.07;63.59;101178.47;5022764;28;20423;-59
2022/12/12 07:58:40;;;;;;;36.15;18.92;;;;;;;-0.10;63.38;101176.91;5025826;28;20060;-59
2022/12/12 08:01:25;;;;;;;34.28;18.52;;;;;;;-0.05;63.79;101190.03;5027867;28;20061;-60
2022/12/12 08:03:52;;;;;;;36.65;19.13;;;;;;;-0.06;66.18;101188.34;5026080;28;20030;-59
2022/12/12 08:06:20;;;;;;;35.33;18.85;;;;;;;0.17;69.07;101189.28;5024479;28;20076;-60
2022/12/12 08:08:46;;;;;;;39.70;19.10;;;;;;;0.20;67.10;101197.13;5018292;28;20350;-59
2022/12/12 08:11:13;;;;;;;39.50;20.50;;;;;;;0.11;64.04;101198.16;5028713;28;20095;-59
2022/12/12 08:13:40;;;;;;;36.08;19.48;;;;;;;0.06;64.04;101195.13;5035292;28;20392;-59
2022/12/12 08:16:10;;;;;;;34.92;18.58;;;;;;;0.03;64.00;101200.91;5040150;28;20043;-59
2022/12/12 08:18:35;;;;;;;35.47;19.23;;;;;;;0.02;64.01;101204.69;5025485;28;20756;-59
2022/12/12 08:21:01;;;;;;;37.20;19.55;;;;;;;-0.02;63.81;101193.25;5023377;28;20029;-61
2022/12/12 08:23:26;;;;;;;37.67;18.35;;;;;;;0.00;63.71;101201.28;5026515;28;20156;-62
2022/12/12 08:25:52;;;;;;;41.00;18.65;;;;;;;-0.03;64.31;101204.38;5023929;28;20034;-61
2022/12/12 08:28:17;;;;;;;40.50;20.05;;;;;;;-0.03;63.97;101201.63;5032422;28;20032;-61
2022/12/12 08:30:48;;;;;;;35.33;19.38;;;;;;;-0.08;64.23;101202.16;5048328;28;20025;-62
2022/12/12 08:33:13;;;;;;;37.45;18.77;;;;;;;-0.09;64.31;101205.06;5035672;28;20523;-61
2022/12/12 08:35:38;;;;;;;35.05;18.63;;;;;;;-0.10;64.11;101206.09;5045804;28;20138;-61
2022/12/12 08:38:03;;;;;;;36.20;18.70;;;;;;;-0.07;64.46;101206.59;5047565;28;20028;-61
2022/12/12 08:40:29;;;;;;;35.75;18.83;;;;;;;-0.03;64.40;101213.41;5026991;28;20835;-61
2022/12/12 08:42:54;;;;;;;38.50;20.38;;;;;;;-0.03;64.25;101210.66;5042485;28;20167;-61
2022/12/12 08:45:19;;;;;;;41.40;20.65;;;;;;;0.01;64.72;101204.88;5044272;28;20061;-61
2022/12/12 08:47:45;;;;;;;32.53;17.75;;;;;;;0.05;63.82;101208.94;5038982;28;20044;-60
2022/12/12 08:50:11;;;;;;;36.10;18.20;;;;;;;0.06;64.29;101216.94;5027449;28;20555;-60
2022/12/12 08:52:36;;;;;;;36.28;18.20;;;;;;;0.07;63.97;101209.59;5023890;28;20033;-60
2022/12/12 08:55:03;;;;;;;38.45;19.13;;;;;;;0.03;63.71;101209.09;5027172;28;20033;-61
2022/12/12 08:57:28;;;;;;;35.45;17.83;;;;;;;0.08;64.18;101208.56;5022508;28;20045;-61
2022/12/12 08:59:53;;;;;;;34.25;17.42;;;;;;;0.10;64.10;101215.56;5008060;28;20033;-60
2022/12/12 09:02:18;;;;;;;35.08;19.42;;;;;;;0.09;64.26;101219.34;5039754;28;20570;-59
2022/12/12 09:04:44;;;;;;;33.63;17.77;;;;;;;0.10;64.18;101209.25;5023741;28;20040;-60
2022/12/12 09:07:09;;;;;;;39.67;20.40;;;;;;;0.09;64.20;101208.41;5026505;28;20087;-60
2022/12/12 09:09:34;;;;;;;41.33;21.67;;;;;;;0.15;64.41;101215.03;5035783;28;20033;-59
2022/12/12 09:11:59;;;;;;;46.92;22.83;;;;;;;0.13;63.87;101217.94;5026025;28;20036;-59
2022/12/12 09:14:25;;;;;;;43.63;21.55;;;;;;;0.16;64.18;101214.88;5029062;28;20030;-58
2022/12/12 09:16:50;;;;;;;41.40;21.17;;;;;;;0.21;64.03;101217.91;5029112;28;20037;-59
2022/12/12 09:19:16;;;;;;;32.58;16.60;;;;;;;0.36;69.65;101219.91;5020373;28;20030;-59
2022/12/12 09:21:41;;;;;;;35.63;18.13;;;;;;;0.39;65.27;101231.34;5024631;28;20501;-61
2022/12/12 09:24:07;;;;;;;36.25;17.33;;;;;;;0.42;64.58;101230.13;5020564;28;20489;-61
2022/12/12 09:26:32;;;;;;;28.15;14.18;;;;;;;0.81;73.51;101219.16;5027335;28;20029;-61
2022/12/12 09:28:57;;;;;;;34.55;17.98;;;;;;;0.78;65.05;101224.97;5045091;28;20037;-61
2022/12/12 09:31:23;;;;;;;35.13;17.77;;;;;;;0.78;64.07;101224.97;5043168;28;20025;-60
2022/12/12 09:33:49;;;;;;;32.10;16.77;;;;;;;0.81;63.56;101232.81;5028383;28;20495;-61
2022/12/12 09:36:14;;;;;;;33.88;17.02;;;;;;;0.88;63.46;101225.59;5028735;28;20476;-61
2022/12/12 09:38:40;;;;;;;30.77;16.38;;;;;;;0.98;63.16;101220.75;5041597;28;20112;-60
2022/12/12 09:41:14;;;;;;;30.80;16.45;;;;;;;1.06;62.72;101228.06;5031493;28;20024;-60
2022/12/12 09:43:50;;;;;;;31.17;16.70;;;;;;;1.11;62.58;101224.78;5031287;28;20053;-60
2022/12/12 09:46:46;;;;;;;35.95;16.45;;;;;;;1.20;63.58;101213.56;5025407;28;20373;-59
2022/12/12 09:49:44;;;;;;;35.13;17.23;;;;;;;1.34;63.36;101220.16;5024530;28;20401;-60
2022/12/12 09:52:20;;;;;;;35.40;16.27;;;;;;;1.46;63.39;101217.81;5030552;28;20507;-60
2022/12/12 09:54:46;;;;;;;33.10;16.42;;;;;;;1.62;61.98;101216.81;5021728;28;20037;-60
2022/12/12 09:57:29;;;;;;;34.97;16.63;;;;;;;1.80;62.10;101216.44;5025616;28;20033;-60
2022/12/12 10:00:13;;;;;;;30.45;16.52;;;;;;;1.98;61.64;101206.00;5030020;28;20032;-60
2022/12/12 10:03:18;;;;;;;34.17;15.73;;;;;;;2.07;61.52;101204.00;5032305;28;20103;-60
2022/12/12 10:06:07;;;;;;;37.53;18.98;;;;;;;2.13;60.33;101201.38;5018519;28;20634;-61
2022/12/12 10:08:45;;;;;;;36.17;20.73;;;;;;;2.25;60.89;101212.72;5026122;28;20061;-60
2022/12/12 10:14:02;;;;;;;32.53;16.23;;;;;;;2.45;59.50;101207.50;5022807;28;20102;-61
2022/12/12 10:16:31;;;;;;;30.10;16.25;;;;;;;2.53;60.03;101198.31;5017014;28;20435;-62
2022/12/12 10:19:12;;;;;;;35.35;17.35;;;;;;;2.63;60.04;101198.84;5026862;28;20400;-61
2022/12/12 10:21:39;;;;;;;35.05;18.40;;;;;;;2.72;60.26;101202.34;5028901;28;20508;-61
2022/12/12 10:24:31;;;;;;;33.45;18.17;;;;;;;2.81;59.80;101204.75;5017563;28;20674;-61
2022/12/12 10:26:59;;;;;;;33.08;17.67;;;;;;;2.84;58.65;101201.63;5022572;28;20087;-62
2022/12/12 10:29:27;;;;;;;31.60;16.98;;;;;;;2.90;58.54;101210.97;5024203;28;20072;-62
2022/12/12 10:32:21;;;;;;;31.15;17.02;;;;;;;2.98;59.73;101210.00;5031992;28;20053;-60
2022/12/12 10:35:10;;;;;;;31.55;15.52;;;;;;;2.96;58.69;101210.19;5024383;28;20029;-61
2022/12/12 10:38:08;;;;;;;32.67;15.85;;;;;;;3.01;58.56;101199.50;5022806;28;20045;-60
2022/12/12 10:40:45;;;;;;;29.30;16.23;;;;;;;3.04;58.09;101190.88;5003024;28;20531;-60
2022/12/12 10:43:22;;;;;;;31.30;15.40;;;;;;;3.07;58.32;101184.16;5025719;28;20032;-60
2022/12/12 10:46:14;;;;;;;30.90;15.82;;;;;;;3.11;59.02;101179.97;5025579;28;20034;-60
2022/12/12 10:48:39;;;;;;;29.63;16.13;;;;;;;3.11;58.34;101186.31;5025364;28;20116;-60
2022/12/12 10:51:17;;;;;;;29.08;15.25;;;;;;;3.11;58.46;101183.56;5027632;28;20029;-60
2022/12/12 10:53:43;;;;;;;32.78;16.15;;;;;;;3.12;57.81;101187.16;5027257;28;20144;-60
2022/12/12 10:56:24;;;;;;;25.05;14.35;;;;;;;3.14;57.81;101194.16;5012394;28;20117;-60
2022/12/12 10:58:58;;;;;;;28.90;15.20;;;;;;;3.12;58.08;101187.16;5023262;28;20718;-60
2022/12/12 11:01:29;;;;;;;28.23;15.50;;;;;;;3.11;57.64;101188.22;5031510;28;20033;-60
2022/12/12 11:03:56;;;;;;;27.33;14.70;;;;;;;3.10;57.84;101195.56;5027321;28;20083;-60
2022/12/12 11:06:30;;;;;;;35.78;16.25;;;;;;;3.10;57.73;101190.06;5029804;28;20540;-62
2022/12/12 11:09:07;;;;;;;25.90;13.68;;;;;;;3.12;57.73;101187.16;5029587;28;20037;-60
2022/12/12 11:11:32;;;;;;;29.10;15.02;;;;;;;3.07;57.60;101178.69;5022909;28;20022;-60
2022/12/12 11:13:59;;;;;;;26.48;14.52;;;;;;;3.05;57.33;101180.75;5025653;28;20037;-60
2022/12/12 11:17:00;;;;;;;28.90;15.15;;;;;;;3.06;58.38;101177.81;5038712;28;20116;-60
2022/12/12 11:19:35;;;;;;;25.88;14.48;;;;;;;3.01;57.43;101172.06;5007215;28;20049;-62
2022/12/12 11:22:03;;;;;;;26.40;14.48;;;;;;;2.99;57.16;101176.91;5028222;28;20033;-61
2022/12/12 11:24:31;;;;;;;26.83;15.43;;;;;;;2.98;57.03;101166.97;5029150;28;20147;-61
2022/12/12 11:27:06;;;;;;;30.23;15.43;;;;;;;2.96;57.72;101171.81;5028649;28;20196;-61
2022/12/12 11:29:37;;;;;;;26.42;14.90;;;;;;;2.99;57.90;101171.44;5030756;28;20421;-61
2022/12/12 11:32:23;;;;;;;29.08;15.15;;;;;;;2.97;57.72;101162.53;5028747;28;20468;-61
2022/12/12 11:34:52;;;;;;;24.85;14.55;;;;;;;2.95;57.08;101168.22;5025669;28;20033;-60
2022/12/12 11:37:21;;;;;;;27.02;14.20;;;;;;;2.94;57.65;101174.72;5034815;28;20378;-61
2022/12/12 11:39:50;;;;;;;29.40;14.98;;;;;;;2.92;57.06;101170.50;5034065;28;20025;-61
2022/12/12 11:42:20;;;;;;;27.70;14.70;;;;;;;2.88;57.46;101171.94;5031469;28;20104;-62
2022/12/12 11:44:48;;;;;;;28.08;15.05;;;;;;;2.86;57.81;101161.16;5044629;28;20444;-62
2022/12/12 11:47:25;;;;;;;25.13;13.90;;;;;;;2.88;57.20;101164.56;5023461;28;20033;-62
2022/12/12 11:49:54;;;;;;;21.92;12.98;;;;;;;2.90;57.19;101159.72;5033793;28;20033;-61